sensor_id;sensor_type;location;lat;lon;timestamp;pressure;altitude;pressure_sealevel;temperature;humidity
50484;BME280;36409;52.168;20.878;2023-03-03T00:01:20;100907.89;;;-3.94;72.34
50484;BME280;36409;52.168;20.878;2023-03-03T00:03:55;100908.71;;;-3.95;72.72
50484;BME280;36409;52.168;20.878;2023-03-03T00:06:28;100907.89;;;-3.94;72.64
50484;BME280;36409;52.168;20.878;2023-03-03T00:09:01;100903.68;;;-3.93;72.83
50484;BME280;36409;52.168;20.878;2023-03-03T00:11:35;100901.99;;;-3.93;72.82
50484;BME280;36409;52.168;20.878;2023-03-03T00:14:21;100886.86;;;-3.90;72.79
50484;BME280;36409;52.168;20.878;2023-03-03T00:16:54;100889.41;;;-3.90;72.71
50484;BME280;36409;52.168;20.878;2023-03-03T00:19:28;100886.86;;;-3.90;72.71
50484;BME280;36409;52.168;20.878;2023-03-03T00:22:15;100885.20;;;-3.89;72.64
50484;BME280;36409;52.168;20.878;2023-03-03T00:24:50;100883.34;;;-3.92;72.66
50484;BME280;36409;52.168;20.878;2023-03-03T00:27:29;100884.93;;;-3.94;72.51
50484;BME280;36409;52.168;20.878;2023-03-03T00:30:05;100888.20;;;-3.96;72.54
50484;BME280;36409;52.168;20.878;2023-03-03T00:32:48;100886.38;;;-3.99;72.58
50484;BME280;36409;52.168;20.878;2023-03-03T00:35:28;100882.93;;;-3.99;72.63
50484;BME280;36409;52.168;20.878;2023-03-03T00:38:11;100873.69;;;-3.97;72.86
50484;BME280;36409;52.168;20.878;2023-03-03T00:40:48;100862.94;;;-3.92;73.01
50484;BME280;36409;52.168;20.878;2023-03-03T00:43:25;100860.55;;;-3.89;73.21
50484;BME280;36409;52.168;20.878;2023-03-03T00:46:00;100858.06;;;-3.87;73.09
50484;BME280;36409;52.168;20.878;2023-03-03T00:48:41;100855.52;;;-3.87;72.86
50484;BME280;36409;52.168;20.878;2023-03-03T00:51:26;100858.97;;;-3.86;73.11
50484;BME280;36409;52.168;20.878;2023-03-03T00:54:00;100851.38;;;-3.85;72.96
50484;BME280;36409;52.168;20.878;2023-03-03T00:56:35;100850.65;;;-3.82;73.21
50484;BME280;36409;52.168;20.878;2023-03-03T00:59:09;100853.30;;;-3.81;73.15
50484;BME280;36409;52.168;20.878;2023-03-03T01:01:44;100840.55;;;-3.81;73.13
50484;BME280;36409;52.168;20.878;2023-03-03T01:04:17;100832.00;;;-3.81;73.22
50484;BME280;36409;52.168;20.878;2023-03-03T01:06:50;100831.20;;;-3.80;72.96
50484;BME280;36409;52.168;20.878;2023-03-03T01:09:24;100835.44;;;-3.81;72.99
50484;BME280;36409;52.168;20.878;2023-03-03T01:11:56;100827.69;;;-3.82;73.11
50484;BME280;36409;52.168;20.878;2023-03-03T01:14:29;100832.79;;;-3.82;73.12
50484;BME280;36409;52.168;20.878;2023-03-03T01:17:03;100825.07;;;-3.84;73.03
50484;BME280;36409;52.168;20.878;2023-03-03T01:19:39;100823.48;;;-3.82;73.25
50484;BME280;36409;52.168;20.878;2023-03-03T01:22:14;100815.03;;;-3.81;73.25
50484;BME280;36409;52.168;20.878;2023-03-03T01:57:25;100778.52;;;-3.96;73.17
50484;BME280;36409;52.168;20.878;2023-03-03T02:00:07;100779.25;;;-3.99;73.37
50484;BME280;36409;52.168;20.878;2023-03-03T02:02:44;100769.84;;;-4.00;73.15
50484;BME280;36409;52.168;20.878;2023-03-03T02:05:19;100775.01;;;-3.98;73.19
50484;BME280;36409;52.168;20.878;2023-03-03T02:07:53;100777.56;;;-3.98;73.54
50484;BME280;36409;52.168;20.878;2023-03-03T02:10:27;100786.73;;;-4.02;73.22
50484;BME280;36409;52.168;20.878;2023-03-03T02:12:59;100786.56;;;-4.05;73.24
50484;BME280;36409;52.168;20.878;2023-03-03T02:15:32;100785.64;;;-4.07;73.18
50484;BME280;36409;52.168;20.878;2023-03-03T02:18:09;100782.92;;;-4.10;73.34
50484;BME280;36409;52.168;20.878;2023-03-03T02:20:55;100782.13;;;-4.09;73.35
50484;BME280;36409;52.168;20.878;2023-03-03T02:23:32;100786.33;;;-4.10;73.38
50484;BME280;36409;52.168;20.878;2023-03-03T02:26:12;100787.13;;;-4.11;73.44
50484;BME280;36409;52.168;20.878;2023-03-03T02:28:50;100781.09;;;-4.13;73.37
50484;BME280;36409;52.168;20.878;2023-03-03T02:31:24;100781.16;;;-4.11;73.47
50484;BME280;36409;52.168;20.878;2023-03-03T02:33:57;100782.13;;;-4.09;73.48
50484;BME280;36409;52.168;20.878;2023-03-03T02:36:32;100779.64;;;-4.08;73.61
50484;BME280;36409;52.168;20.878;2023-03-03T02:39:07;100782.36;;;-4.05;73.57
50484;BME280;36409;52.168;20.878;2023-03-03T02:41:46;100785.87;;;-4.02;73.55
50484;BME280;36409;52.168;20.878;2023-03-03T02:44:26;100779.08;;;-4.02;73.69
50484;BME280;36409;52.168;20.878;2023-03-03T02:47:01;100779.08;;;-4.02;73.57
50484;BME280;36409;52.168;20.878;2023-03-03T02:49:40;100778.22;;;-4.02;73.45
50484;BME280;36409;52.168;20.878;2023-03-03T02:52:14;100767.22;;;-4.01;73.58
50484;BME280;36409;52.168;20.878;2023-03-03T02:54:51;100780.05;;;-4.00;73.56
50484;BME280;36409;52.168;20.878;2023-03-03T02:57:25;100773.25;;;-3.99;73.71
50484;BME280;36409;52.168;20.878;2023-03-03T02:59:58;100773.35;;;-3.98;73.72
50484;BME280;36409;52.168;20.878;2023-03-03T03:02:33;100770.80;;;-3.98;73.60
50484;BME280;36409;52.168;20.878;2023-03-03T03:05:09;100773.35;;;-3.98;73.77
50484;BME280;36409;52.168;20.878;2023-03-03T03:07:43;100771.83;;;-3.94;73.95
50484;BME280;36409;52.168;20.878;2023-03-03T03:10:15;100765.14;;;-3.92;73.97
50484;BME280;36409;52.168;20.878;2023-03-03T03:12:48;100763.61;;;-3.89;74.02
50484;BME280;36409;52.168;20.878;2023-03-03T03:15:26;100762.81;;;-3.88;73.74
50484;BME280;36409;52.168;20.878;2023-03-03T03:17:59;100759.47;;;-3.86;74.05
50484;BME280;36409;52.168;20.878;2023-03-03T03:20:34;100763.77;;;-3.85;74.26
50484;BME280;36409;52.168;20.878;2023-03-03T03:23:09;100754.53;;;-3.83;73.69
50484;BME280;36409;52.168;20.878;2023-03-03T03:25:43;100769.11;;;-3.81;74.14
50484;BME280;36409;52.168;20.878;2023-03-03T03:28:24;100764.07;;;-3.79;73.91
50484;BME280;36409;52.168;20.878;2023-03-03T03:31:00;100756.34;;;-3.81;73.92
50484;BME280;36409;52.168;20.878;2023-03-03T03:33:37;100754.03;;;-3.76;73.98
50484;BME280;36409;52.168;20.878;2023-03-03T03:36:10;100747.23;;;-3.76;73.90
50484;BME280;36409;52.168;20.878;2023-03-03T03:38:43;100753.23;;;-3.75;74.00
50484;BME280;36409;52.168;20.878;2023-03-03T03:41:17;100755.84;;;-3.74;74.05
50484;BME280;36409;52.168;20.878;2023-03-03T03:43:55;100756.73;;;-3.73;73.92
50484;BME280;36409;52.168;20.878;2023-03-03T03:46:28;100754.31;;;-3.70;74.10
50484;BME280;36409;52.168;20.878;2023-03-03T03:49:01;100757.92;;;-3.66;74.17
50484;BME280;36409;52.168;20.878;2023-03-03T03:51:34;100759.64;;;-3.65;74.68
50484;BME280;36409;52.168;20.878;2023-03-03T03:54:13;100752.82;;;-3.66;74.24
50484;BME280;36409;52.168;20.878;2023-03-03T03:56:46;100755.44;;;-3.65;74.16
50484;BME280;36409;52.168;20.878;2023-03-03T03:59:18;100736.77;;;-3.64;74.02
50484;BME280;36409;52.168;20.878;2023-03-03T04:01:53;100747.84;;;-3.63;74.33
50484;BME280;36409;52.168;20.878;2023-03-03T04:04:27;100729.18;;;-3.62;74.28
50484;BME280;36409;52.168;20.878;2023-03-03T04:07:01;100724.97;;;-3.62;74.42
50484;BME280;36409;52.168;20.878;2023-03-03T04:09:35;100722.48;;;-3.60;74.47
50484;BME280;36409;52.168;20.878;2023-03-03T04:12:11;100734.45;;;-3.59;74.44
50484;BME280;36409;52.168;20.878;2023-03-03T04:14:43;100727.59;;;-3.60;74.22
50484;BME280;36409;52.168;20.878;2023-03-03T04:17:19;100728.55;;;-3.58;74.41
50484;BME280;36409;52.168;20.878;2023-03-03T04:19:54;100729.41;;;-3.58;74.52
50484;BME280;36409;52.168;20.878;2023-03-03T04:22:31;100728.55;;;-3.58;74.39
50484;BME280;36409;52.168;20.878;2023-03-03T04:25:10;100733.71;;;-3.57;74.54
50484;BME280;36409;52.168;20.878;2023-03-03T04:27:45;100732.75;;;-3.59;74.41
50484;BME280;36409;52.168;20.878;2023-03-03T04:30:18;100725.89;;;-3.60;74.50
50484;BME280;36409;52.168;20.878;2023-03-03T04:32:51;100714.03;;;-3.59;74.48
50484;BME280;36409;52.168;20.878;2023-03-03T04:35:27;100714.83;;;-3.60;74.60
50484;BME280;36409;52.168;20.878;2023-03-03T04:38:00;100718.23;;;-3.60;74.22
50484;BME280;36409;52.168;20.878;2023-03-03T04:40:33;100711.41;;;-3.61;74.46
50484;BME280;36409;52.168;20.878;2023-03-03T04:43:07;100709.72;;;-3.60;74.59
50484;BME280;36409;52.168;20.878;2023-03-03T04:45:40;100706.31;;;-3.61;74.75
50484;BME280;36409;52.168;20.878;2023-03-03T04:48:13;100707.17;;;-3.60;74.69
50484;BME280;36409;52.168;20.878;2023-03-03T04:50:46;100705.41;;;-3.61;74.49
50484;BME280;36409;52.168;20.878;2023-03-03T04:53:29;100700.25;;;-3.63;74.52
50484;BME280;36409;52.168;20.878;2023-03-03T04:56:03;100697.60;;;-3.64;74.73
50484;BME280;36409;52.168;20.878;2023-03-03T04:58:38;100695.94;;;-3.64;74.76
50484;BME280;36409;52.168;20.878;2023-03-03T05:01:13;100701.84;;;-3.65;74.71
50484;BME280;36409;52.168;20.878;2023-03-03T05:03:50;100694.98;;;-3.66;74.70
50484;BME280;36409;52.168;20.878;2023-03-03T05:06:23;100689.88;;;-3.66;74.60
50484;BME280;36409;52.168;20.878;2023-03-03T05:08:58;100692.44;;;-3.66;74.64
50484;BME280;36409;52.168;20.878;2023-03-03T05:11:31;100685.64;;;-3.65;74.55
50484;BME280;36409;52.168;20.878;2023-03-03T05:14:04;100689.88;;;-3.66;74.82
50484;BME280;36409;52.168;20.878;2023-03-03T05:16:39;100700.89;;;-3.67;74.54
50484;BME280;36409;52.168;20.878;2023-03-03T05:19:12;100698.34;;;-3.67;74.74
50484;BME280;36409;52.168;20.878;2023-03-03T05:21:45;100700.95;;;-3.65;74.78
50484;BME280;36409;52.168;20.878;2023-03-03T05:24:18;100701.11;;;-3.62;74.84
50484;BME280;36409;52.168;20.878;2023-03-03T05:26:51;100702.13;;;-3.59;74.90
50484;BME280;36409;52.168;20.878;2023-03-03T05:29:24;100703.17;;;-3.55;74.86
50484;BME280;36409;52.168;20.878;2023-03-03T05:32:00;100691.49;;;-3.50;75.05
50484;BME280;36409;52.168;20.878;2023-03-03T05:34:33;100699.47;;;-3.44;74.99
50484;BME280;36409;52.168;20.878;2023-03-03T05:37:07;100704.69;;;-3.41;75.04
50484;BME280;36409;52.168;20.878;2023-03-03T05:39:40;100694.79;;;-3.34;74.97
50484;BME280;36409;52.168;20.878;2023-03-03T05:42:15;100697.62;;;-3.28;75.21
50484;BME280;36409;52.168;20.878;2023-03-03T05:44:47;100698.73;;;-3.23;75.28
50484;BME280;36409;52.168;20.878;2023-03-03T05:47:27;100703.25;;;-3.17;75.18
50484;BME280;36409;52.168;20.878;2023-03-03T05:50:04;100699.21;;;-3.12;75.29
50484;BME280;36409;52.168;20.878;2023-03-03T05:52:38;100696.81;;;-3.09;75.13
50484;BME280;36409;52.168;20.878;2023-03-03T05:55:14;100700.43;;;-3.04;75.13
50484;BME280;36409;52.168;20.878;2023-03-03T05:57:46;100698.92;;;-3.00;75.21
50484;BME280;36409;52.168;20.878;2023-03-03T06:00:22;100695.69;;;-2.96;75.29
50484;BME280;36409;52.168;20.878;2023-03-03T06:02:55;100699.39;;;-2.89;75.45
50484;BME280;36409;52.168;20.878;2023-03-03T06:05:31;100694.58;;;-2.83;75.18
50484;BME280;36409;52.168;20.878;2023-03-03T06:08:04;100691.48;;;-2.76;75.40
50484;BME280;36409;52.168;20.878;2023-03-03T06:10:38;100684.92;;;-2.71;75.16
50484;BME280;36409;52.168;20.878;2023-03-03T06:13:12;100689.34;;;-2.67;75.27
50484;BME280;36409;52.168;20.878;2023-03-03T06:15:44;100683.48;;;-2.64;75.35
50484;BME280;36409;52.168;20.878;2023-03-03T06:18:18;100684.52;;;-2.60;75.49
50484;BME280;36409;52.168;20.878;2023-03-03T06:20:53;100696.61;;;-2.56;75.24
50484;BME280;36409;52.168;20.878;2023-03-03T06:23:28;100686.52;;;-2.53;75.25
50484;BME280;36409;52.168;20.878;2023-03-03T06:26:00;100692.64;;;-2.50;75.69
50484;BME280;36409;52.168;20.878;2023-03-03T06:28:35;100703.06;;;-2.45;75.68
50484;BME280;36409;52.168;20.878;2023-03-03T06:31:08;100699.70;;;-2.44;75.38
50484;BME280;36409;52.168;20.878;2023-03-03T06:33:41;100708.38;;;-2.40;75.83
50484;BME280;36409;52.168;20.878;2023-03-03T06:36:14;100701.66;;;-2.38;75.66
50484;BME280;36409;52.168;20.878;2023-03-03T06:38:46;100700.10;;;-2.35;75.00
50484;BME280;36409;52.168;20.878;2023-03-03T06:41:19;100700.25;;;-2.31;75.43
50484;BME280;36409;52.168;20.878;2023-03-03T06:43:52;100706.16;;;-2.33;75.65
50484;BME280;36409;52.168;20.878;2023-03-03T06:46:26;100696.73;;;-2.34;75.50
50484;BME280;36409;52.168;20.878;2023-03-03T06:48:59;100700.19;;;-2.33;75.40
50484;BME280;36409;52.168;20.878;2023-03-03T06:51:34;100703.47;;;-2.36;75.45
50484;BME280;36409;52.168;20.878;2023-03-03T06:54:12;100709.42;;;-2.37;75.52
50484;BME280;36409;52.168;20.878;2023-03-03T06:56:46;100700.91;;;-2.36;75.90
50484;BME280;36409;52.168;20.878;2023-03-03T06:59:20;100705.16;;;-2.36;75.78
50484;BME280;36409;52.168;20.878;2023-03-03T07:01:53;100704.30;;;-2.37;76.21
50484;BME280;36409;52.168;20.878;2023-03-03T07:04:29;100698.44;;;-2.34;75.67
50484;BME280;36409;52.168;20.878;2023-03-03T07:07:10;100698.49;;;-2.33;75.75
50484;BME280;36409;52.168;20.878;2023-03-03T07:09:48;100694.66;;;-2.23;75.76
50484;BME280;36409;52.168;20.878;2023-03-03T07:12:22;100696.75;;;-2.14;75.99
50484;BME280;36409;52.168;20.878;2023-03-03T07:14:54;100688.52;;;-2.07;75.74
50484;BME280;36409;52.168;20.878;2023-03-03T07:17:37;100678.52;;;-2.00;76.00
50484;BME280;36409;52.168;20.878;2023-03-03T07:20:16;100679.66;;;-1.94;75.87
50484;BME280;36409;52.168;20.878;2023-03-03T07:22:50;100682.40;;;-1.89;75.62
50484;BME280;36409;52.168;20.878;2023-03-03T07:25:25;100681.73;;;-1.85;75.82
50484;BME280;36409;52.168;20.878;2023-03-03T07:27:58;100698.65;;;-1.89;75.81
50484;BME280;36409;52.168;20.878;2023-03-03T07:30:34;100680.65;;;-1.90;75.68
50484;BME280;36409;52.168;20.878;2023-03-03T07:33:21;100685.09;;;-1.86;76.26
50484;BME280;36409;52.168;20.878;2023-03-03T07:35:58;100683.48;;;-1.84;75.89
50484;BME280;36409;52.168;20.878;2023-03-03T07:38:34;100679.41;;;-1.79;76.11
50484;BME280;36409;52.168;20.878;2023-03-03T07:41:13;100683.05;;;-1.74;76.19
50484;BME280;36409;52.168;20.878;2023-03-03T07:43:49;100694.41;;;-1.67;76.03
50484;BME280;36409;52.168;20.878;2023-03-03T07:46:33;100696.48;;;-1.58;76.52
50484;BME280;36409;52.168;20.878;2023-03-03T07:49:20;100701.88;;;-1.50;76.34
50484;BME280;36409;52.168;20.878;2023-03-03T07:51:55;100703.95;;;-1.42;76.28
50484;BME280;36409;52.168;20.878;2023-03-03T07:54:36;100708.44;;;-1.36;76.19
50484;BME280;36409;52.168;20.878;2023-03-03T07:57:19;100706.05;;;-1.31;76.10
50484;BME280;36409;52.168;20.878;2023-03-03T07:59:58;100702.94;;;-1.24;76.12
50484;BME280;36409;52.168;20.878;2023-03-03T08:02:46;100714.27;;;-1.17;76.21
50484;BME280;36409;52.168;20.878;2023-03-03T08:05:39;100700.78;;;-1.13;76.25
50484;BME280;36409;52.168;20.878;2023-03-03T08:08:25;100700.09;;;-1.09;76.30
50484;BME280;36409;52.168;20.878;2023-03-03T08:10:57;100705.44;;;-1.03;75.97
50484;BME280;36409;52.168;20.878;2023-03-03T08:13:39;100705.62;;;-0.98;76.73
50484;BME280;36409;52.168;20.878;2023-03-03T08:16:37;100705.87;;;-0.92;76.67
50484;BME280;36409;52.168;20.878;2023-03-03T08:19:13;100698.27;;;-0.89;76.27
50484;BME280;36409;52.168;20.878;2023-03-03T08:21:48;100701.94;;;-0.82;76.40
50484;BME280;36409;52.168;20.878;2023-03-03T08:24:20;100705.61;;;-0.75;76.68
50484;BME280;36409;52.168;20.878;2023-03-03T08:26:53;100714.58;;;-0.64;76.30
50484;BME280;36409;52.168;20.878;2023-03-03T08:29:25;100718.48;;;-0.51;76.48
50484;BME280;36409;52.168;20.878;2023-03-03T08:31:58;100709.08;;;-0.51;76.71
50484;BME280;36409;52.168;20.878;2023-03-03T08:34:31;100716.82;;;-0.49;76.02
50484;BME280;36409;52.168;20.878;2023-03-03T08:37:04;100721.37;;;-0.42;76.23
50484;BME280;36409;52.168;20.878;2023-03-03T08:39:38;100724.23;;;-0.34;75.92
50484;BME280;36409;52.168;20.878;2023-03-03T08:42:11;100721.98;;;-0.25;76.25
50484;BME280;36409;52.168;20.878;2023-03-03T08:44:46;100723.81;;;-0.21;76.16
50484;BME280;36409;52.168;20.878;2023-03-03T08:47:18;100724.63;;;-0.22;76.16
50484;BME280;36409;52.168;20.878;2023-03-03T08:49:51;100721.16;;;-0.24;76.08
50484;BME280;36409;52.168;20.878;2023-03-03T08:52:24;100727.04;;;-0.26;76.65
50484;BME280;36409;52.168;20.878;2023-03-03T08:54:59;100739.87;;;-0.26;76.49
50484;BME280;36409;52.168;20.878;2023-03-03T08:57:38;100734.53;;;-0.33;75.81
50484;BME280;36409;52.168;20.878;2023-03-03T09:00:14;100753.30;;;-0.34;76.79
50484;BME280;36409;52.168;20.878;2023-03-03T09:02:47;100749.88;;;-0.34;76.50
50484;BME280;36409;52.168;20.878;2023-03-03T09:05:21;100746.38;;;-0.36;76.37
50484;BME280;36409;52.168;20.878;2023-03-03T09:07:54;100753.14;;;-0.38;76.64
50484;BME280;36409;52.168;20.878;2023-03-03T09:10:28;100743.58;;;-0.42;75.67
50484;BME280;36409;52.168;20.878;2023-03-03T09:13:10;100762.47;;;-0.40;76.80
50484;BME280;36409;52.168;20.878;2023-03-03T09:15:44;100757.38;;;-0.39;76.91
50484;BME280;36409;52.168;20.878;2023-03-03T09:18:19;100753.14;;;-0.38;76.75
50484;BME280;36409;52.168;20.878;2023-03-03T09:20:53;100743.81;;;-0.36;76.69
50484;BME280;36409;52.168;20.878;2023-03-03T09:23:34;100748.98;;;-0.35;76.11
50484;BME280;36409;52.168;20.878;2023-03-03T09:26:36;100732.66;;;-0.37;76.56
50484;BME280;36409;52.168;20.878;2023-03-03T09:29:25;100730.01;;;-0.40;75.87
50484;BME280;36409;52.168;20.878;2023-03-03T09:32:00;100730.86;;;-0.39;76.50
50484;BME280;36409;52.168;20.878;2023-03-03T09:34:41;100720.65;;;-0.38;76.66
50484;BME280;36409;52.168;20.878;2023-03-03T09:37:21;100710.55;;;-0.33;76.09
50484;BME280;36409;52.168;20.878;2023-03-03T09:39:55;100709.84;;;-0.29;76.44
50484;BME280;36409;52.168;20.878;2023-03-03T09:42:47;100706.47;;;-0.28;76.46
50484;BME280;36409;52.168;20.878;2023-03-03T09:45:36;100709.03;;;-0.28;76.46
50484;BME280;36409;52.168;20.878;2023-03-03T09:48:29;100712.53;;;-0.26;76.12
50484;BME280;36409;52.168;20.878;2023-03-03T09:51:24;100715.09;;;-0.26;76.50
50484;BME280;36409;52.168;20.878;2023-03-03T09:54:16;100709.16;;;-0.25;77.05
50484;BME280;36409;52.168;20.878;2023-03-03T09:57:00;100699.62;;;-0.27;77.03
50484;BME280;36409;52.168;20.878;2023-03-03T09:59:46;100695.39;;;-0.27;76.78
50484;BME280;36409;52.168;20.878;2023-03-03T10:02:40;100697.19;;;-0.24;76.41
50484;BME280;36409;52.168;20.878;2023-03-03T10:05:31;100699.05;;;-0.20;76.90
50484;BME280;36409;52.168;20.878;2023-03-03T10:08:20;100682.06;;;-0.17;76.86
50484;BME280;36409;52.168;20.878;2023-03-03T10:11:02;100683.92;;;-0.12;76.30
50484;BME280;36409;52.168;20.878;2023-03-03T10:13:57;100683.80;;;-0.16;76.42
50484;BME280;36409;52.168;20.878;2023-03-03T10:16:45;100683.69;;;-0.19;75.84
50484;BME280;36409;52.168;20.878;2023-03-03T10:19:31;100681.13;;;-0.19;76.10
50484;BME280;36409;52.168;20.878;2023-03-03T10:22:17;100686.26;;;-0.19;76.39
50484;BME280;36409;52.168;20.878;2023-03-03T10:25:06;100691.50;;;-0.16;76.24
50484;BME280;36409;52.168;20.878;2023-03-03T10:27:58;100684.66;;;-0.15;76.04
50484;BME280;36409;52.168;20.878;2023-03-03T10:30:42;100694.07;;;-0.16;76.93
50484;BME280;36409;52.168;20.878;2023-03-03T10:33:42;100694.19;;;-0.12;76.00
50484;BME280;36409;52.168;20.878;2023-03-03T10:36:33;100694.19;;;-0.12;76.90
50484;BME280;36409;52.168;20.878;2023-03-03T10:39:19;100682.10;;;-0.15;76.10
50484;BME280;36409;52.168;20.878;2023-03-03T10:42:19;100695.05;;;-0.12;76.59
50484;BME280;36409;52.168;20.878;2023-03-03T10:45:12;100703.67;;;-0.10;77.03
50484;BME280;36409;52.168;20.878;2023-03-03T10:48:15;100702.75;;;-0.12;76.32
50484;BME280;36409;52.168;20.878;2023-03-03T10:51:04;100712.03;;;-0.16;76.72
50484;BME280;36409;52.168;20.878;2023-03-03T10:53:47;100707.67;;;-0.18;76.11
50484;BME280;36409;52.168;20.878;2023-03-03T10:56:33;100712.70;;;-0.21;76.45
50484;BME280;36409;52.168;20.878;2023-03-03T10:59:39;100708.27;;;-0.25;76.92
50484;BME280;36409;52.168;20.878;2023-03-03T11:02:20;100711.72;;;-0.25;76.17
50484;BME280;36409;52.168;20.878;2023-03-03T11:05:14;100705.77;;;-0.24;76.49
50484;BME280;36409;52.168;20.878;2023-03-03T11:07:51;100702.27;;;-0.26;76.98
50484;BME280;36409;52.168;20.878;2023-03-03T11:10:40;100694.61;;;-0.24;76.42
50484;BME280;36409;52.168;20.878;2023-03-03T11:13:24;100697.02;;;-0.29;76.00
50484;BME280;36409;52.168;20.878;2023-03-03T11:16:33;100705.61;;;-0.28;76.71
50484;BME280;36409;52.168;20.878;2023-03-03T11:19:20;100712.45;;;-0.27;76.73
50484;BME280;36409;52.168;20.878;2023-03-03T11:22:04;100715.88;;;-0.28;76.68
50484;BME280;36409;52.168;20.878;2023-03-03T11:24:48;100726.88;;;-0.31;76.16
50484;BME280;36409;52.168;20.878;2023-03-03T11:27:37;100718.16;;;-0.36;76.21
50484;BME280;36409;52.168;20.878;2023-03-03T11:30:31;100717.22;;;-0.38;75.89
50484;BME280;36409;52.168;20.878;2023-03-03T11:33:14;100704.36;;;-0.40;77.02
50484;BME280;36409;52.168;20.878;2023-03-03T11:36:08;100699.23;;;-0.40;76.73
50484;BME280;36409;52.168;20.878;2023-03-03T11:38:50;100699.39;;;-0.35;76.49
50484;BME280;36409;52.168;20.878;2023-03-03T11:41:30;100689.13;;;-0.35;76.51
50484;BME280;36409;52.168;20.878;2023-03-03T11:44:14;100686.56;;;-0.35;76.79
50484;BME280;36409;52.168;20.878;2023-03-03T11:46:52;100678.86;;;-0.35;76.76
50484;BME280;36409;52.168;20.878;2023-03-03T11:49:31;100677.11;;;-0.36;76.59
50484;BME280;36409;52.168;20.878;2023-03-03T11:52:13;100677.92;;;-0.37;76.47
50484;BME280;36409;52.168;20.878;2023-03-03T11:54:55;100671.09;;;-0.37;76.80
50484;BME280;36409;52.168;20.878;2023-03-03T11:57:35;100671.00;;;-0.40;75.94
50484;BME280;36409;52.168;20.878;2023-03-03T12:00:28;100672.52;;;-0.45;76.09
50484;BME280;36409;52.168;20.878;2023-03-03T12:03:18;100678.34;;;-0.49;75.76
50484;BME280;36409;52.168;20.878;2023-03-03T12:06:05;100685.14;;;-0.51;76.88
50484;BME280;36409;52.168;20.878;2023-03-03T12:09:02;100685.06;;;-0.53;76.80
50484;BME280;36409;52.168;20.878;2023-03-03T12:11:47;100680.83;;;-0.52;76.01
50484;BME280;36409;52.168;20.878;2023-03-03T12:14:47;100688.45;;;-0.54;76.03
50484;BME280;36409;52.168;20.878;2023-03-03T12:17:38;100688.41;;;-0.55;76.83
50484;BME280;36409;52.168;20.878;2023-03-03T12:20:19;100684.95;;;-0.56;76.54
50484;BME280;36409;52.168;20.878;2023-03-03T12:23:07;100668.66;;;-0.58;76.55
50484;BME280;36409;52.168;20.878;2023-03-03T12:25:43;100682.30;;;-0.59;76.75
50484;BME280;36409;52.168;20.878;2023-03-03T12:28:20;100679.66;;;-0.60;76.38
50484;BME280;36409;52.168;20.878;2023-03-03T12:31:14;100682.30;;;-0.59;76.87
50484;BME280;36409;52.168;20.878;2023-03-03T12:33:56;100686.48;;;-0.61;76.62
50484;BME280;36409;52.168;20.878;2023-03-03T12:36:48;100684.86;;;-0.59;76.00
50484;BME280;36409;52.168;20.878;2023-03-03T12:39:32;100684.86;;;-0.59;76.58
50484;BME280;36409;52.168;20.878;2023-03-03T12:42:15;100683.16;;;-0.58;76.63
50484;BME280;36409;52.168;20.878;2023-03-03T12:45:00;100682.22;;;-0.60;76.93
50484;BME280;36409;52.168;20.878;2023-03-03T12:47:40;100682.22;;;-0.60;76.28
50484;BME280;36409;52.168;20.878;2023-03-03T12:50:29;100684.69;;;-0.64;76.90
50484;BME280;36409;52.168;20.878;2023-03-03T12:53:15;100682.87;;;-0.66;76.75
50484;BME280;36409;52.168;20.878;2023-03-03T12:55:57;100682.01;;;-0.67;76.51
50484;BME280;36409;52.168;20.878;2023-03-03T12:58:45;100679.40;;;-0.68;76.90
50484;BME280;36409;52.168;20.878;2023-03-03T13:01:32;100681.12;;;-0.67;76.37
50484;BME280;36409;52.168;20.878;2023-03-03T13:04:12;100682.01;;;-0.67;76.35
50484;BME280;36409;52.168;20.878;2023-03-03T13:06:56;100679.44;;;-0.67;76.77
50484;BME280;36409;52.168;20.878;2023-03-03T13:09:42;100677.65;;;-0.69;76.88
50484;BME280;36409;52.168;20.878;2023-03-03T13:12:31;100676.84;;;-0.68;76.78
50484;BME280;36409;52.168;20.878;2023-03-03T13:15:14;100674.27;;;-0.68;76.20
50484;BME280;36409;52.168;20.878;2023-03-03T13:18:03;100688.77;;;-0.69;77.14
50484;BME280;36409;52.168;20.878;2023-03-03T13:20:47;100689.53;;;-0.71;76.11
50484;BME280;36409;52.168;20.878;2023-03-03T13:23:36;100682.61;;;-0.74;76.50
50484;BME280;36409;52.168;20.878;2023-03-03T13:26:17;100681.72;;;-0.74;76.56
50484;BME280;36409;52.168;20.878;2023-03-03T13:28:59;100677.41;;;-0.75;76.39
50484;BME280;36409;52.168;20.878;2023-03-03T13:31:38;100682.49;;;-0.77;76.77
50484;BME280;36409;52.168;20.878;2023-03-03T13:34:24;100674.67;;;-0.80;77.09
50484;BME280;36409;52.168;20.878;2023-03-03T13:37:03;100666.94;;;-0.82;76.91
50484;BME280;36409;52.168;20.878;2023-03-03T13:39:41;100674.63;;;-0.82;76.58
50484;BME280;36409;52.168;20.878;2023-03-03T13:42:21;100667.87;;;-0.80;76.55
50484;BME280;36409;52.168;20.878;2023-03-03T13:44:56;100669.59;;;-0.79;76.23
50484;BME280;36409;52.168;20.878;2023-03-03T13:47:37;100661.98;;;-0.77;76.66
50484;BME280;36409;52.168;20.878;2023-03-03T13:50:21;100653.31;;;-0.81;76.80
50484;BME280;36409;52.168;20.878;2023-03-03T13:53:08;100650.75;;;-0.81;76.20
50484;BME280;36409;52.168;20.878;2023-03-03T13:55:55;100645.50;;;-0.84;76.74
50484;BME280;36409;52.168;20.878;2023-03-03T13:58:36;100648.88;;;-0.85;77.00
50484;BME280;36409;52.168;20.878;2023-03-03T14:01:20;100643.63;;;-0.88;76.22
50484;BME280;36409;52.168;20.878;2023-03-03T14:04:05;100649.69;;;-0.86;76.60
50484;BME280;36409;52.168;20.878;2023-03-03T14:06:48;100642.94;;;-0.84;76.56
50484;BME280;36409;52.168;20.878;2023-03-03T14:09:49;100646.36;;;-0.83;77.15
50484;BME280;36409;52.168;20.878;2023-03-03T14:12:28;100641.23;;;-0.83;77.10
50484;BME280;36409;52.168;20.878;2023-03-03T14:15:20;100644.69;;;-0.83;77.16